Time;durP1;ratioP1;P1;durP2;ratioP2;P2;SDS_P1;SDS_P2;PMS_P1;PMS_P2;Temp;Humidity;BMP_temperature;BMP_pressure;BME280_temperature;BME280_humidity;BME280_pressure;Samples;Min_cycle;Max_cycle;Signal;HPM_P1;HPM_P2
2023/11/21 00:01:56;;;;;;;3.13;1.27;;;11.40;99.90;;;;;;5040543;28;20209;-60
2023/11/21 00:04:25;;;;;;;6.07;1.73;;;11.40;99.90;;;;;;5043486;28;20201;-57
2023/11/21 00:06:52;;;;;;;3.67;1.43;;;11.30;99.90;;;;;;5043152;28;20252;-61
2023/11/21 00:09:19;;;;;;;3.27;1.57;;;11.30;99.90;;;;;;5047929;28;20588;-60
2023/11/21 00:11:46;;;;;;;4.93;1.43;;;11.40;99.90;;;;;;5039620;28;20687;-57
2023/11/21 00:14:14;;;;;;;3.80;1.40;;;11.40;99.90;;;;;;5042379;28;20289;-58
2023/11/21 00:16:41;;;;;;;3.60;1.40;;;11.40;99.90;;;;;;5042795;28;20668;-58
2023/11/21 00:19:08;;;;;;;6.00;1.43;;;11.40;99.90;;;;;;5041042;28;20220;-66
2023/11/21 00:21:36;;;;;;;5.10;1.80;;;11.40;99.90;;;;;;5039485;28;20210;-58
2023/11/21 00:24:03;;;;;;;2.93;1.57;;;11.50;99.90;;;;;;5040967;28;20205;-57
2023/11/21 00:26:31;;;;;;;3.83;1.43;;;11.40;99.90;;;;;;5042811;28;20675;-59
2023/11/21 00:28:56;;;;;;;4.53;1.43;;;11.30;99.90;;;;;;5042104;28;20236;-57
2023/11/21 00:31:23;;;;;;;5.73;1.70;;;11.40;99.90;;;;;;5039504;28;20280;-59
2023/11/21 00:33:50;;;;;;;3.07;1.60;;;11.30;99.90;;;;;;5039710;28;20222;-57
2023/11/21 00:36:16;;;;;;;5.73;1.63;;;11.30;99.90;;;;;;5042285;28;20228;-60
2023/11/21 00:38:44;;;;;;;3.63;1.40;;;11.30;99.90;;;;;;5042773;28;20236;-58
2023/11/21 00:41:11;;;;;;;4.87;1.67;;;11.40;99.90;;;;;;5040222;28;20205;-58
2023/11/21 00:43:38;;;;;;;3.40;1.60;;;11.50;99.90;;;;;;5039666;28;20209;-58
2023/11/21 00:46:07;;;;;;;4.43;1.50;;;11.60;99.90;;;;;;5040636;28;20210;-59
2023/11/21 00:48:33;;;;;;;3.67;1.40;;;11.60;99.90;;;;;;5042738;28;20236;-58
2023/11/21 00:51:00;;;;;;;4.80;1.60;;;11.50;99.90;;;;;;5041434;28;20587;-61
2023/11/21 00:53:27;;;;;;;4.23;1.30;;;11.60;99.90;;;;;;5039637;28;20218;-59
2023/11/21 00:55:57;;;;;;;4.00;1.60;;;11.60;99.90;;;;;;5038967;28;20206;-60
2023/11/21 00:58:24;;;;;;;3.27;1.57;;;11.60;99.90;;;;;;5042969;28;20217;-58
2023/11/21 01:00:51;;;;;;;4.90;1.53;;;11.60;99.90;;;;;;5042717;28;20297;-59
2023/11/21 01:03:17;;;;;;;3.87;1.53;;;11.70;99.90;;;;;;5039068;28;20690;-58
2023/11/21 01:05:44;;;;;;;6.63;1.63;;;11.70;99.90;;;;;;5038933;28;20206;-57
2023/11/21 01:08:11;;;;;;;2.20;1.43;;;11.70;99.90;;;;;;5041216;28;20791;-58
2023/11/21 01:10:38;;;;;;;2.50;1.30;;;11.70;99.90;;;;;;5042431;28;20201;-58
2023/11/21 01:13:07;;;;;;;4.33;1.50;;;11.80;99.90;;;;;;5040880;28;20226;-59
2023/11/21 01:15:33;;;;;;;5.97;1.60;;;11.80;99.90;;;;;;5038667;28;20593;-58
2023/11/21 01:18:00;;;;;;;4.77;1.40;;;11.80;99.90;;;;;;5039593;28;20715;-57
2023/11/21 01:20:27;;;;;;;5.27;1.70;;;11.70;99.90;;;;;;5042564;28;20198;-60
2023/11/21 01:22:54;;;;;;;7.17;1.97;;;11.70;99.90;;;;;;5042737;28;20197;-57
2023/11/21 01:25:21;;;;;;;3.70;1.20;;;11.60;99.90;;;;;;5046837;28;20213;-57
2023/11/21 01:27:48;;;;;;;4.87;1.60;;;11.60;99.90;;;;;;5038807;28;20609;-58
2023/11/21 01:30:16;;;;;;;3.23;1.17;;;11.60;99.90;;;;;;5041399;28;20602;-57
2023/11/21 01:32:43;;;;;;;4.27;1.47;;;11.60;99.90;;;;;;5042317;28;20685;-60
2023/11/21 01:35:10;;;;;;;3.30;1.53;;;11.60;99.90;;;;;;5039951;28;20213;-58
2023/11/21 01:37:37;;;;;;;5.43;1.80;;;11.60;99.90;;;;;;5038666;28;20312;-58
2023/11/21 01:40:07;;;;;;;5.90;1.57;;;11.70;99.90;;;;;;5040389;28;20575;-59
2023/11/21 01:42:34;;;;;;;3.70;1.57;;;11.70;99.90;;;;;;5042472;28;20652;-57
2023/11/21 01:45:04;;;;;;;3.80;1.50;;;11.70;99.90;;;;;;5041111;28;20217;-57
2023/11/21 01:47:33;;;;;;;4.67;1.50;;;11.80;99.90;;;;;;5041124;28;20652;-57
2023/11/21 01:50:00;;;;;;;5.87;1.67;;;11.80;99.90;;;;;;5042713;28;20210;-61
2023/11/21 01:52:27;;;;;;;5.57;1.60;;;11.90;99.90;;;;;;5045695;28;20213;-58
2023/11/21 01:54:54;;;;;;;5.23;1.83;;;11.90;99.90;;;;;;5045521;28;20585;-58
2023/11/21 01:57:21;;;;;;;4.30;1.40;;;11.90;99.90;;;;;;5045871;28;20650;-57
2023/11/21 01:59:49;;;;;;;3.27;1.20;;;11.90;99.90;;;;;;5047213;28;20694;-60
2023/11/21 02:02:16;;;;;;;4.13;1.37;;;12.00;99.90;;;;;;5043201;28;20229;-57
2023/11/21 02:04:44;;;;;;;3.60;1.53;;;11.90;99.90;;;;;;5042265;28;20210;-58
2023/11/21 02:07:11;;;;;;;4.87;1.80;;;11.80;99.90;;;;;;5044433;28;20237;-57
2023/11/21 02:09:39;;;;;;;3.63;1.30;;;11.80;99.90;;;;;;5045831;28;20210;-60
2023/11/21 02:12:08;;;;;;;5.03;1.67;;;11.80;99.90;;;;;;5043966;28;20300;-58
2023/11/21 02:14:35;;;;;;;3.23;1.40;;;11.80;99.90;;;;;;5041896;28;20258;-58
2023/11/21 02:17:03;;;;;;;4.37;1.43;;;11.90;99.90;;;;;;5041413;28;20234;-57
2023/11/21 02:19:30;;;;;;;5.80;1.40;;;11.90;99.90;;;;;;5045685;28;20205;-61
2023/11/21 02:22:03;;;;;;;3.63;1.40;;;12.00;99.90;;;;;;5045735;28;20683;-57
2023/11/21 02:24:31;;;;;;;2.70;1.53;;;11.90;99.90;;;;;;5041828;28;20199;-58
2023/11/21 02:26:58;;;;;;;3.60;1.10;;;11.80;99.90;;;;;;5041941;28;20238;-58
2023/11/21 02:29:28;;;;;;;2.63;1.33;;;11.80;99.90;;;;;;5044912;28;20671;-57
2023/11/21 02:31:55;;;;;;;3.23;1.37;;;11.80;99.90;;;;;;5044867;28;20672;-58
2023/11/21 02:34:24;;;;;;;3.43;1.20;;;11.80;99.90;;;;;;5044731;28;20222;-58
2023/11/21 02:36:51;;;;;;;2.03;1.07;;;11.90;99.90;;;;;;5044988;28;20253;-57
2023/11/21 02:39:21;;;;;;;3.73;1.00;;;11.90;99.90;;;;;;5041775;28;20206;-58
2023/11/21 02:41:49;;;;;;;2.27;1.10;;;11.90;99.90;;;;;;5041498;28;20568;-57
2023/11/21 02:44:16;;;;;;;3.47;1.40;;;12.00;99.90;;;;;;5044033;28;20229;-57
2023/11/21 02:46:43;;;;;;;2.83;1.10;;;12.00;99.90;;;;;;5044425;28;20283;-57
2023/11/21 02:49:10;;;;;;;2.50;1.00;;;12.00;99.90;;;;;;5042911;28;20213;-58
2023/11/21 02:51:37;;;;;;;2.73;1.20;;;12.00;99.90;;;;;;5041187;28;20234;-61
2023/11/21 02:54:06;;;;;;;4.37;1.20;;;12.00;99.90;;;;;;5042312;28;20308;-58
2023/11/21 02:56:33;;;;;;;2.73;0.83;;;12.00;99.90;;;;;;5044260;28;20205;-61
2023/11/21 02:59:01;;;;;;;2.47;1.00;;;12.10;99.90;;;;;;5044126;28;20244;-61
2023/11/21 03:01:29;;;;;;;2.57;1.00;;;12.00;99.90;;;;;;5040882;28;20668;-62
2023/11/21 03:03:56;;;;;;;4.20;1.47;;;12.10;99.90;;;;;;5041868;28;20203;-61
2023/11/21 03:06:23;;;;;;;2.40;0.83;;;12.00;99.90;;;;;;5041279;28;20209;-60
2023/11/21 03:08:50;;;;;;;2.63;1.27;;;12.10;99.90;;;;;;5041157;28;20284;-61
2023/11/21 03:11:17;;;;;;;3.30;1.07;;;12.10;99.90;;;;;;5043250;28;20210;-61
2023/11/21 03:13:44;;;;;;;3.33;1.07;;;12.10;99.90;;;;;;5044672;28;20225;-62
2023/11/21 03:16:13;;;;;;;2.47;1.30;;;12.00;99.90;;;;;;5042078;28;20698;-62
2023/11/21 03:18:40;;;;;;;2.97;1.23;;;11.90;99.90;;;;;;5040684;28;20226;-62
2023/11/21 03:21:08;;;;;;;3.00;1.20;;;12.00;99.90;;;;;;5042195;28;20217;-62
2023/11/21 03:23:35;;;;;;;2.03;0.90;;;12.00;99.90;;;;;;5044131;28;20477;-62
2023/11/21 03:26:02;;;;;;;6.33;1.00;;;12.00;99.90;;;;;;5042918;28;20221;-62
2023/11/21 03:28:30;;;;;;;3.53;0.90;;;12.00;99.90;;;;;;5040664;28;20230;-62
2023/11/21 03:30:57;;;;;;;3.37;1.10;;;11.90;99.90;;;;;;5040591;28;20585;-61
2023/11/21 03:33:25;;;;;;;3.53;1.20;;;12.00;99.90;;;;;;5044194;28;20748;-60
2023/11/21 03:35:52;;;;;;;2.10;0.97;;;12.40;99.90;;;;;;5043802;28;20695;-60
2023/11/21 03:38:20;;;;;;;1.90;0.93;;;12.10;99.90;;;;;;5040564;28;20226;-62
2023/11/21 03:40:46;;;;;;;1.90;0.90;;;12.10;99.90;;;;;;5040512;28;20237;-62
2023/11/21 03:43:14;;;;;;;4.20;1.07;;;12.10;99.90;;;;;;5042087;28;20240;-63
2023/11/21 03:45:41;;;;;;;2.33;0.90;;;12.10;99.90;;;;;;5043360;28;20206;-62
2023/11/21 03:48:08;;;;;;;2.67;0.80;;;12.20;99.90;;;;;;5042162;28;20646;-60
2023/11/21 03:50:36;;;;;;;2.50;0.80;;;12.20;99.90;;;;;;5040684;28;20269;-61
2023/11/21 03:53:03;;;;;;;2.90;1.03;;;12.20;99.90;;;;;;5041086;28;20213;-61
2023/11/21 03:55:31;;;;;;;7.17;4.43;;;12.20;99.90;;;;;;5044066;28;20202;-60
2023/11/21 03:57:58;;;;;;;3.03;1.27;;;12.20;99.90;;;;;;5043726;28;20251;-62
2023/11/21 04:00:27;;;;;;;2.63;1.20;;;12.20;99.90;;;;;;5048146;28;20209;-62
2023/11/21 04:02:53;;;;;;;2.27;1.40;;;12.20;99.90;;;;;;5040405;28;20237;-61
2023/11/21 04:05:21;;;;;;;1.57;1.10;;;12.10;99.90;;;;;;5042911;28;20202;-61
2023/11/21 04:07:49;;;;;;;2.57;1.70;;;12.00;99.90;;;;;;5059642;23;20330;-60
2023/11/21 04:10:16;;;;;;;2.00;1.20;;;11.90;99.90;;;;;;5022658;28;20207;-59
2023/11/21 04:12:43;;;;;;;6.13;1.33;;;11.80;99.90;;;;;;5023405;28;20206;-60
2023/11/21 04:15:11;;;;;;;1.77;1.07;;;11.90;99.90;;;;;;5021663;28;20222;-59
2023/11/21 04:17:37;;;;;;;1.17;0.90;;;12.00;99.90;;;;;;5019989;28;20233;-60
2023/11/21 04:20:08;;;;;;;1.97;0.87;;;12.00;99.90;;;;;;5020313;28;20219;-60
2023/11/21 04:22:35;;;;;;;2.90;0.83;;;12.00;99.90;;;;;;5023710;28;20210;-60
2023/11/21 04:25:03;;;;;;;2.60;1.53;;;12.00;99.90;;;;;;5023066;28;20213;-59
2023/11/21 04:27:30;;;;;;;2.40;1.43;;;12.00;99.90;;;;;;5020012;28;20225;-58
2023/11/21 04:29:56;;;;;;;3.00;1.30;;;12.00;99.90;;;;;;5019994;28;20290;-60
2023/11/21 04:32:23;;;;;;;1.50;1.07;;;12.00;99.90;;;;;;5022845;28;20272;-60
2023/11/21 04:34:50;;;;;;;2.10;1.30;;;12.00;99.90;;;;;;5023199;28;20233;-58
2023/11/21 04:37:16;;;;;;;2.10;0.90;;;12.00;99.90;;;;;;5020652;28;20222;-58
2023/11/21 04:39:43;;;;;;;3.03;0.80;;;11.90;99.90;;;;;;5019859;28;20215;-61
2023/11/21 04:42:12;;;;;;;2.23;1.00;;;11.90;99.90;;;;;;5021008;28;20211;-57
2023/11/21 04:44:40;;;;;;;2.40;0.93;;;11.90;99.90;;;;;;5022791;28;20206;-59
2023/11/21 04:47:07;;;;;;;2.07;0.97;;;11.90;99.90;;;;;;5021793;28;20210;-59
2023/11/21 04:49:34;;;;;;;2.50;0.93;;;11.90;99.90;;;;;;5019771;28;20285;-59
2023/11/21 04:52:01;;;;;;;2.30;0.90;;;11.90;99.90;;;;;;5019646;28;20465;-59
2023/11/21 04:54:28;;;;;;;1.77;0.70;;;11.80;99.90;;;;;;5022879;28;20304;-59
2023/11/21 04:56:54;;;;;;;1.87;0.70;;;11.70;99.90;;;;;;5023091;28;20297;-59
2023/11/21 04:59:24;;;;;;;2.63;1.10;;;11.70;99.90;;;;;;5019878;28;20234;-60
2023/11/21 05:01:51;;;;;;;1.50;0.73;;;11.80;99.90;;;;;;5019350;28;20302;-59
2023/11/21 05:04:17;;;;;;;1.60;0.90;;;11.80;99.90;;;;;;5021812;28;20210;-59
2023/11/21 05:06:44;;;;;;;3.97;1.10;;;11.80;99.90;;;;;;5022759;28;20209;-57
2023/11/21 05:09:12;;;;;;;2.50;1.00;;;11.80;99.90;;;;;;5021211;28;20230;-58
2023/11/21 05:11:40;;;;;;;1.67;0.97;;;11.80;99.90;;;;;;5019335;28;20549;-58
2023/11/21 05:14:08;;;;;;;1.50;0.50;;;11.80;99.90;;;;;;5019820;28;20328;-59
2023/11/21 05:16:37;;;;;;;2.33;0.97;;;11.70;99.90;;;;;;5022629;28;20213;-59
2023/11/21 05:19:04;;;;;;;2.63;1.00;;;11.60;99.90;;;;;;5022355;28;20230;-62
2023/11/21 05:21:31;;;;;;;2.13;0.90;;;11.50;99.90;;;;;;5019741;28;20672;-58
2023/11/21 05:23:58;;;;;;;4.67;2.73;;;11.60;99.90;;;;;;5023235;28;20210;-59
2023/11/21 05:26:24;;;;;;;3.43;1.37;;;11.60;99.90;;;;;;5026003;28;20210;-59
2023/11/21 05:28:51;;;;;;;4.47;1.70;;;11.60;99.90;;;;;;5026269;28;20230;-59
2023/11/21 05:31:18;;;;;;;6.10;2.40;;;11.60;99.90;;;;;;5024037;28;20214;-60
2023/11/21 05:33:46;;;;;;;2.57;1.70;;;11.60;99.90;;;;;;5023109;28;20280;-58
2023/11/21 05:36:12;;;;;;;2.27;0.93;;;11.70;99.90;;;;;;5024338;28;20215;-59
2023/11/21 05:38:39;;;;;;;3.47;1.60;;;11.70;99.90;;;;;;5026025;28;20712;-59
2023/11/21 05:41:06;;;;;;;2.17;1.60;;;11.60;99.90;;;;;;5025243;28;20679;-60
2023/11/21 05:43:35;;;;;;;1.83;1.10;;;11.70;99.90;;;;;;5022821;28;20207;-58
2023/11/21 05:46:02;;;;;;;3.47;0.93;;;11.70;99.90;;;;;;5022605;28;20628;-59
2023/11/21 05:48:28;;;;;;;2.97;1.20;;;11.70;99.90;;;;;;5030894;28;20231;-59
2023/11/21 05:50:56;;;;;;;1.27;0.60;;;11.80;99.90;;;;;;5022495;28;20229;-59
2023/11/21 05:53:23;;;;;;;3.80;1.47;;;11.80;99.90;;;;;;5025427;28;20671;-59
2023/11/21 05:55:50;;;;;;;3.37;1.50;;;11.80;99.90;;;;;;5025764;28;20233;-60
2023/11/21 05:58:16;;;;;;;2.13;1.83;;;11.80;99.90;;;;;;5023763;28;20601;-60
2023/11/21 06:00:43;;;;;;;2.17;1.60;;;11.80;99.90;;;;;;5022879;28;20206;-59
2023/11/21 06:03:10;;;;;;;3.10;1.90;;;11.80;99.90;;;;;;5023354;28;20214;-58
2023/11/21 06:05:37;;;;;;;1.63;1.00;;;11.80;99.90;;;;;;5025753;28;20293;-60
2023/11/21 06:08:07;;;;;;;2.17;0.90;;;11.80;99.90;;;;;;5025542;28;20244;-59
2023/11/21 06:10:34;;;;;;;2.43;1.43;;;11.80;99.90;;;;;;5022053;28;20249;-58
2023/11/21 06:13:00;;;;;;;4.60;1.60;;;11.90;99.90;;;;;;5022642;28;20215;-58
2023/11/21 06:15:27;;;;;;;2.27;1.23;;;11.90;99.90;;;;;;5025214;28;20218;-59
2023/11/21 06:17:54;;;;;;;3.10;1.80;;;11.90;99.90;;;;;;5025287;28;20230;-59
2023/11/21 06:20:22;;;;;;;2.10;1.60;;;11.90;99.90;;;;;;5022776;28;20217;-60
2023/11/21 06:22:50;;;;;;;3.97;1.90;;;11.90;99.90;;;;;;5022113;28;20241;-60
2023/11/21 06:25:19;;;;;;;6.90;4.27;;;11.90;99.90;;;;;;5023631;28;20231;-59
2023/11/21 06:27:48;;;;;;;1.80;1.40;;;11.90;99.90;;;;;;5025662;28;20233;-59
2023/11/21 06:30:16;;;;;;;3.40;1.30;;;12.00;99.90;;;;;;5024030;28;20261;-60
2023/11/21 06:32:45;;;;;;;3.33;2.00;;;12.00;99.90;;;;;;5021708;28;20214;-58
2023/11/21 06:35:13;;;;;;;2.10;1.40;;;12.00;99.90;;;;;;5022870;28;20326;-58
2023/11/21 06:37:40;;;;;;;1.90;1.20;;;12.00;99.90;;;;;;5025884;28;20328;-58
2023/11/21 06:40:09;;;;;;;3.87;2.70;;;12.00;99.90;;;;;;5025297;28;20284;-59
2023/11/21 06:42:38;;;;;;;1.40;1.10;;;11.80;99.90;;;;;;5021830;28;20203;-59
2023/11/21 06:45:06;;;;;;;1.30;0.87;;;11.80;99.90;;;;;;5021758;28;20289;-58
2023/11/21 06:47:33;;;;;;;2.83;1.37;;;11.80;99.90;;;;;;5024921;28;20233;-58
2023/11/21 06:50:00;;;;;;;3.83;1.93;;;11.80;99.90;;;;;;5024855;28;20210;-59
2023/11/21 06:52:27;;;;;;;2.93;1.43;;;11.80;99.90;;;;;;5021863;28;20199;-58
2023/11/21 06:54:54;;;;;;;3.67;1.23;;;11.80;99.90;;;;;;5021180;28;20230;-59
2023/11/21 06:57:21;;;;;;;3.77;2.00;;;11.80;99.90;;;;;;5023648;28;20223;-58
2023/11/21 06:59:50;;;;;;;3.40;1.73;;;11.90;99.90;;;;;;5024937;28;20214;-60
2023/11/21 07:02:18;;;;;;;2.87;1.70;;;11.90;99.90;;;;;;5023010;28;20214;-58
2023/11/21 07:04:45;;;;;;;5.10;3.13;;;11.90;99.90;;;;;;5021028;28;20210;-58
2023/11/21 07:07:11;;;;;;;3.33;2.70;;;11.90;99.90;;;;;;5022167;28;20254;-59
2023/11/21 07:09:38;;;;;;;8.90;4.57;;;11.90;99.90;;;;;;5024552;28;20237;-59
2023/11/21 07:12:07;;;;;;;8.53;5.03;;;11.90;99.90;;;;;;5024308;28;20218;-59
2023/11/21 07:14:34;;;;;;;4.83;2.77;;;11.90;99.90;;;;;;5020898;28;20321;-60
2023/11/21 07:17:02;;;;;;;4.27;2.50;;;11.90;99.90;;;;;;5021070;28;20217;-59
2023/11/21 07:19:28;;;;;;;3.47;2.30;;;12.00;99.90;;;;;;5024358;28;20205;-58
2023/11/21 07:21:55;;;;;;;8.97;6.07;;;12.00;99.90;;;;;;5024796;28;20238;-58
2023/11/21 07:24:22;;;;;;;3.57;1.90;;;12.10;99.90;;;;;;5022080;28;20225;-60
2023/11/21 07:26:49;;;;;;;5.13;2.57;;;12.20;99.90;;;;;;5020894;28;20294;-59
2023/11/21 07:29:16;;;;;;;4.53;2.80;;;12.20;99.90;;;;;;5022308;28;20207;-58
2023/11/21 07:31:42;;;;;;;23.93;20.37;;;12.30;99.90;;;;;;5024202;28;20202;-59
2023/11/21 07:34:12;;;;;;;3.63;2.70;;;12.30;99.90;;;;;;5023695;28;20203;-59
2023/11/21 07:36:38;;;;;;;3.63;1.57;;;12.40;99.90;;;;;;5020813;28;20214;-59
2023/11/21 07:39:06;;;;;;;3.67;1.97;;;12.40;99.90;;;;;;5020868;28;20235;-58
2023/11/21 07:41:33;;;;;;;4.27;1.07;;;12.40;99.90;;;;;;5028487;28;20218;-58
2023/11/21 07:43:59;;;;;;;2.27;1.00;;;12.40;99.90;;;;;;5019862;28;20276;-58
2023/11/21 07:46:27;;;;;;;4.97;1.60;;;12.50;99.90;;;;;;5022838;28;20629;-58
2023/11/21 07:48:54;;;;;;;7.37;3.90;;;12.60;99.90;;;;;;5024271;28;20257;-58
2023/11/21 07:51:23;;;;;;;1.53;1.00;;;12.60;99.90;;;;;;5021847;28;20210;-58
2023/11/21 07:53:49;;;;;;;14.10;8.73;;;12.70;99.90;;;;;;5020578;28;20211;-58
2023/11/21 07:56:16;;;;;;;2.87;1.30;;;12.70;99.90;;;;;;5021436;28;20218;-58
2023/11/21 07:58:43;;;;;;;2.73;1.00;;;12.80;99.90;;;;;;5023491;28;20245;-60
2023/11/21 08:01:09;;;;;;;3.40;1.17;;;12.90;99.90;;;;;;5022986;28;20537;-58
2023/11/21 08:03:36;;;;;;;2.87;1.20;;;12.90;99.90;;;;;;5020389;28;20627;-57
2023/11/21 08:06:05;;;;;;;4.63;2.27;;;13.00;99.90;;;;;;5019840;28;20207;-58
2023/11/21 08:08:32;;;;;;;2.73;1.40;;;13.00;99.90;;;;;;5023362;28;20253;-57
2023/11/21 08:11:01;;;;;;;1.70;1.13;;;13.10;99.90;;;;;;5023475;28;20297;-57
2023/11/21 08:13:29;;;;;;;13.20;11.27;;;13.20;99.90;;;;;;5020092;28;20231;-60
2023/11/21 08:15:56;;;;;;;2.57;1.37;;;13.30;99.90;;;;;;5020059;28;20223;-58
2023/11/21 08:18:23;;;;;;;2.77;1.47;;;13.40;99.90;;;;;;5022332;28;20281;-57
2023/11/21 08:20:50;;;;;;;2.67;1.20;;;13.40;99.90;;;;;;5023421;28;20230;-58
2023/11/21 08:23:17;;;;;;;1.80;0.97;;;13.40;99.90;;;;;;5021894;28;20451;-59
2023/11/21 08:25:45;;;;;;;1.70;1.10;;;13.40;99.90;;;;;;5019597;28;20199;-59
2023/11/21 08:28:14;;;;;;;3.57;1.40;;;13.50;99.90;;;;;;5020301;28;20728;-59
2023/11/21 08:30:41;;;;;;;2.30;1.10;;;13.50;99.90;;;;;;5023365;28;20260;-58
2023/11/21 08:33:08;;;;;;;1.60;0.93;;;13.50;99.90;;;;;;5023016;28;20236;-59
2023/11/21 08:35:35;;;;;;;1.83;1.10;;;13.60;99.90;;;;;;5019497;28;20607;-58
2023/11/21 08:38:03;;;;;;;1.50;1.03;;;13.60;99.90;;;;;;5019502;28;20680;-62
2023/11/21 08:40:30;;;;;;;2.33;1.37;;;13.70;99.90;;;;;;5022301;28;20618;-62
2023/11/21 08:42:58;;;;;;;2.03;1.00;;;13.70;99.90;;;;;;5023275;28;20252;-59
2023/11/21 08:45:25;;;;;;;1.60;0.87;;;13.70;99.90;;;;;;5020438;28;20296;-60
2023/11/21 08:47:52;;;;;;;3.37;1.13;;;13.70;99.90;;;;;;5019508;28;20262;-60
2023/11/21 08:50:19;;;;;;;3.07;1.10;;;13.70;99.90;;;;;;5021070;28;20211;-59
2023/11/21 08:52:46;;;;;;;1.00;0.80;;;13.70;99.90;;;;;;5022851;28;20213;-63
2023/11/21 08:55:13;;;;;;;3.93;1.33;;;13.80;99.90;;;;;;5021956;28;20260;-59
2023/11/21 08:57:41;;;;;;;1.33;0.90;;;13.90;99.90;;;;;;5026118;28;20254;-62
2023/11/21 09:00:11;;;;;;;2.87;1.27;;;14.00;99.90;;;;;;5026161;28;20461;-59
2023/11/21 09:02:38;;;;;;;2.77;1.30;;;14.20;99.90;;;;;;5030151;28;20520;-58
2023/11/21 09:05:06;;;;;;;3.53;1.70;;;14.20;99.90;;;;;;5029254;28;20210;-61
2023/11/21 09:07:32;;;;;;;1.30;0.93;;;14.30;99.90;;;;;;5025563;28;20226;-61
2023/11/21 09:09:59;;;;;;;1.00;0.90;;;14.60;99.90;;;;;;5026206;28;20210;-62
2023/11/21 09:12:26;;;;;;;2.43;1.43;;;14.80;99.90;;;;;;5028423;28;20290;-59
2023/11/21 09:14:52;;;;;;;2.03;1.03;;;15.00;99.90;;;;;;5027079;28;20656;-61
2023/11/21 09:17:20;;;;;;;2.17;1.52;;;15.10;99.90;;;;;;5028624;28;20230;-59
2023/11/21 09:19:51;;;;;;;2.10;1.10;;;15.20;99.90;;;;;;5028985;28;20206;-65
2023/11/21 09:22:18;;;;;;;2.53;2.27;;;15.30;99.90;;;;;;5028746;28;20268;-65
2023/11/21 09:24:45;;;;;;;1.27;1.07;;;15.40;99.90;;;;;;5035531;28;20221;-63
2023/11/21 09:27:11;;;;;;;1.93;1.20;;;15.50;99.90;;;;;;5036492;28;20236;-64
2023/11/21 09:29:39;;;;;;;2.10;1.33;;;15.50;99.90;;;;;;5036730;28;20663;-64
2023/11/21 09:32:07;;;;;;;1.90;1.00;;;15.40;99.90;;;;;;5036893;28;20217;-65
2023/11/21 09:34:38;;;;;;;2.70;1.48;;;15.30;99.90;;;;;;5036331;28;20639;-64
2023/11/21 09:37:06;;;;;;;1.30;0.97;;;15.30;99.90;;;;;;5035599;28;20206;-64
2023/11/21 09:39:34;;;;;;;1.27;1.07;;;15.30;99.90;;;;;;5036428;28;20241;-64
2023/11/21 09:42:10;;;;;;;21.87;16.83;;;15.20;99.90;;;;;;5036784;28;20691;-63
2023/11/21 09:44:43;;;;;;;24.73;22.20;;;15.20;99.90;;;;;;5029104;28;20241;-67
2023/11/21 09:47:15;;;;;;;3.30;1.70;;;15.20;99.90;;;;;;5034225;28;20663;-63
2023/11/21 09:49:48;;;;;;;2.30;1.30;;;15.10;99.90;;;;;;5036726;28;20854;-63
2023/11/21 09:52:25;;;;;;;5.80;2.60;;;15.10;99.90;;;;;;5036666;28;20605;-64
2023/11/21 09:54:53;;;;;;;2.47;1.37;;;15.30;99.90;;;;;;5036725;28;20615;-64
2023/11/21 09:57:21;;;;;;;1.50;1.08;;;15.40;99.90;;;;;;5036652;28;20321;-65
2023/11/21 09:59:50;;;;;;;2.20;0.90;;;15.60;99.90;;;;;;5036892;28;20237;-65
2023/11/21 10:02:18;;;;;;;1.40;1.15;;;15.80;99.90;;;;;;5036785;28;20263;-64
2023/11/21 10:04:47;;;;;;;2.37;1.20;;;15.90;99.90;;;;;;5036599;28;20703;-64
2023/11/21 10:07:17;;;;;;;2.05;1.20;;;15.90;99.90;;;;;;5058485;22;20444;-60
2023/11/21 10:09:44;;;;;;;4.85;1.30;;;16.10;99.90;;;;;;5033213;28;20222;-59
2023/11/21 10:12:12;;;;;;;3.03;1.55;;;15.70;99.90;;;;;;5033416;28;20221;-59
2023/11/21 10:14:42;;;;;;;1.87;1.70;;;15.60;99.90;;;;;;5033818;28;20225;-60
2023/11/21 10:17:12;;;;;;;1.07;0.97;;;15.30;99.90;;;;;;5033413;28;20699;-63
2023/11/21 10:19:40;;;;;;;1.00;0.70;;;15.10;99.90;;;;;;5006021;28;20211;-58
2023/11/21 10:22:08;;;;;;;1.57;0.90;;;14.90;99.90;;;;;;5013269;28;20306;-59
2023/11/21 10:24:36;;;;;;;1.33;1.20;;;14.60;99.90;;;;;;5012872;28;20218;-59
2023/11/21 10:27:04;;;;;;;1.70;1.10;;;14.40;99.90;;;;;;5013870;28;20230;-59
2023/11/21 10:29:31;;;;;;;2.30;1.30;;;14.30;99.90;;;;;;5013706;28;20238;-59
2023/11/21 10:32:00;;;;;;;1.60;0.70;;;14.20;99.90;;;;;;5013589;28;20221;-58
2023/11/21 10:34:27;;;;;;;1.13;0.63;;;14.10;99.90;;;;;;5012825;28;20213;-59
2023/11/21 10:36:57;;;;;;;0.90;0.70;;;14.00;99.90;;;;;;5013315;28;20229;-58
2023/11/21 10:39:30;;;;;;;0.53;0.50;;;14.00;99.90;;;;;;5013195;28;20235;-58
2023/11/21 10:41:57;;;;;;;1.60;0.90;;;14.10;99.90;;;;;;5013196;28;20559;-58
2023/11/21 10:44:25;;;;;;;1.77;0.90;;;14.30;99.90;;;;;;5013026;28;20320;-56
2023/11/21 10:46:55;;;;;;;1.00;0.70;;;14.30;99.90;;;;;;5012933;28;20251;-59
2023/11/21 10:49:24;;;;;;;1.03;0.73;;;14.30;99.90;;;;;;5013289;28;20775;-59
2023/11/21 10:51:52;;;;;;;1.07;0.93;;;14.20;99.90;;;;;;5013530;28;20261;-61
2023/11/21 10:54:21;;;;;;;1.53;1.20;;;14.00;99.90;;;;;;5013366;28;20699;-59
2023/11/21 10:56:51;;;;;;;2.13;0.70;;;13.60;99.90;;;;;;5013245;28;20230;-58
2023/11/21 10:59:20;;;;;;;0.97;0.80;;;13.10;99.90;;;;;;5012761;28;20696;-58
2023/11/21 11:01:49;;;;;;;1.40;0.90;;;12.80;99.90;;;;;;5013013;28;20211;-63
2023/11/21 11:04:18;;;;;;;0.77;0.77;;;12.50;99.90;;;;;;5012494;28;20218;-63
2023/11/21 11:06:49;;;;;;;0.70;0.60;;;12.40;99.90;;;;;;5012591;28;20211;-61
2023/11/21 11:09:18;;;;;;;1.00;0.70;;;12.60;99.90;;;;;;5012424;28;20740;-59
2023/11/21 11:11:46;;;;;;;1.40;0.77;;;12.80;99.90;;;;;;5012611;28;20211;-62
2023/11/21 11:14:16;;;;;;;0.80;0.70;;;13.10;99.90;;;;;;5012743;28;20265;-59
2023/11/21 11:16:42;;;;;;;0.80;0.60;;;13.20;99.90;;;;;;5012576;28;20253;-62
2023/11/21 11:19:10;;;;;;;0.83;0.57;;;13.30;99.90;;;;;;5011523;28;20267;-62
2023/11/21 11:21:48;;;;;;;0.43;0.40;;;13.50;99.90;;;;;;5012399;28;20265;-63
2023/11/21 11:24:38;;;;;;;1.60;1.03;;;13.50;99.90;;;;;;5012097;28;20246;-60
2023/11/21 11:27:21;;;;;;;7.83;5.77;;;13.60;99.90;;;;;;5011949;28;20669;-60
2023/11/21 11:30:01;;;;;;;2.10;1.10;;;13.90;99.90;;;;;;5005755;28;20246;-59
2023/11/21 11:32:41;;;;;;;1.30;1.13;;;14.00;99.90;;;;;;5012385;28;20276;-59
2023/11/21 11:35:16;;;;;;;1.53;1.03;;;14.10;99.90;;;;;;5011876;28;20215;-60
2023/11/21 11:37:43;;;;;;;1.13;1.00;;;14.20;99.90;;;;;;5004516;28;20247;-60
2023/11/21 11:40:12;;;;;;;1.27;1.00;;;14.40;99.90;;;;;;5012491;28;20218;-60
2023/11/21 11:42:39;;;;;;;0.80;0.80;;;14.50;99.90;;;;;;5004334;28;20247;-60
2023/11/21 11:45:19;;;;;;;1.20;0.80;;;14.70;99.90;;;;;;5011944;28;20215;-60
2023/11/21 11:47:48;;;;;;;1.90;1.10;;;14.70;99.90;;;;;;5004631;28;20277;-59
2023/11/21 11:50:16;;;;;;;1.27;1.03;;;14.90;99.90;;;;;;5012025;28;20211;-59
2023/11/21 11:52:44;;;;;;;1.07;0.80;;;15.00;99.90;;;;;;5011777;28;20215;-59
2023/11/21 11:55:13;;;;;;;1.27;1.10;;;15.10;99.90;;;;;;5011669;28;20211;-60
2023/11/21 11:57:41;;;;;;;1.30;1.10;;;15.20;99.90;;;;;;5003598;28;20232;-60
2023/11/21 12:00:20;;;;;;;1.87;0.90;;;15.20;99.90;;;;;;5011531;28;20210;-60
2023/11/21 12:02:48;;;;;;;0.70;0.70;;;15.20;99.90;;;;;;5004647;28;20664;-60
2023/11/21 12:05:15;;;;;;;0.87;0.80;;;15.20;99.90;;;;;;5019619;28;20211;-60
2023/11/21 12:07:45;;;;;;;1.40;1.30;;;15.20;99.90;;;;;;5011589;28;20235;-60
2023/11/21 12:10:14;;;;;;;3.10;1.17;;;15.10;99.90;;;;;;5011860;28;20214;-59
2023/11/21 12:12:44;;;;;;;2.63;0.77;;;15.10;99.90;;;;;;5003712;28;20203;-60
2023/11/21 12:15:11;;;;;;;3.17;0.90;;;15.00;99.90;;;;;;5011307;28;20215;-60
2023/11/21 12:17:40;;;;;;;1.60;1.40;;;15.00;99.90;;;;;;5011945;28;20223;-59
2023/11/21 12:20:14;;;;;;;0.80;0.80;;;14.90;99.90;;;;;;5011888;28;20206;-60
2023/11/21 12:22:43;;;;;;;1.30;0.70;;;14.90;99.90;;;;;;5011469;28;20302;-60
2023/11/21 12:25:10;;;;;;;1.07;0.97;;;15.00;99.90;;;;;;5011242;28;20217;-59
2023/11/21 12:27:36;;;;;;;2.07;1.00;;;15.00;99.90;;;;;;5011029;28;20238;-60
2023/11/21 12:30:04;;;;;;;1.83;1.37;;;15.20;99.90;;;;;;5010956;28;20267;-60
2023/11/21 12:32:31;;;;;;;1.60;1.50;;;15.50;99.90;;;;;;5011116;28;20225;-60
2023/11/21 12:35:00;;;;;;;1.15;1.05;;;16.00;99.90;;;;;;5011018;28;20211;-60
2023/11/21 12:37:27;;;;;;;1.27;1.07;;;16.20;99.90;;;;;;5010735;28;20227;-64
2023/11/21 12:39:57;;;;;;;0.68;0.68;;;16.10;99.90;;;;;;5011094;28;20207;-65
2023/11/21 12:42:25;;;;;;;0.50;0.50;;;16.00;99.90;;;;;;5011363;28;20222;-61
2023/11/21 12:45:08;;;;;;;1.50;0.57;;;16.00;99.90;;;;;;5011267;28;20249;-61
2023/11/21 12:47:36;;;;;;;1.57;0.50;;;15.90;99.90;;;;;;5010529;28;20325;-62
2023/11/21 12:50:06;;;;;;;1.57;0.80;;;15.90;99.90;;;;;;5010730;28;20250;-62